sensor_id;sensor_type;location;lat;lon;timestamp;P1;durP1;ratioP1;P2;durP2;ratioP2
52730;SDS011;38624;53.242;6.974;2023-02-27T00:01:29;5.60;;;3.27;;
52730;SDS011;38624;53.242;6.974;2023-02-27T00:03:57;10.77;;;3.90;;
52730;SDS011;38624;53.242;6.974;2023-02-27T00:06:23;7.60;;;3.25;;
52730;SDS011;38624;53.242;6.974;2023-02-27T00:08:49;7.57;;;3.40;;
52730;SDS011;38624;53.242;6.974;2023-02-27T00:11:14;5.97;;;2.97;;
52730;SDS011;38624;53.242;6.974;2023-02-27T00:13:40;6.20;;;3.60;;
52730;SDS011;38624;53.242;6.974;2023-02-27T00:16:06;8.07;;;3.43;;
52730;SDS011;38624;53.242;6.974;2023-02-27T00:18:32;6.55;;;3.70;;
52730;SDS011;38624;53.242;6.974;2023-02-27T00:20:58;12.20;;;4.20;;
52730;SDS011;38624;53.242;6.974;2023-02-27T00:23:23;9.33;;;3.53;;
52730;SDS011;38624;53.242;6.974;2023-02-27T00:25:49;7.33;;;3.43;;
52730;SDS011;38624;53.242;6.974;2023-02-27T00:28:16;5.90;;;3.80;;
52730;SDS011;38624;53.242;6.974;2023-02-27T00:30:41;7.50;;;3.80;;
52730;SDS011;38624;53.242;6.974;2023-02-27T00:33:07;11.70;;;3.87;;
52730;SDS011;38624;53.242;6.974;2023-02-27T00:35:33;9.07;;;3.83;;
52730;SDS011;38624;53.242;6.974;2023-02-27T00:37:59;11.70;;;4.00;;
52730;SDS011;38624;53.242;6.974;2023-02-27T00:40:25;10.33;;;4.00;;
52730;SDS011;38624;53.242;6.974;2023-02-27T00:42:51;9.33;;;4.17;;
52730;SDS011;38624;53.242;6.974;2023-02-27T00:45:16;7.53;;;3.60;;
52730;SDS011;38624;53.242;6.974;2023-02-27T00:47:44;9.80;;;4.27;;
52730;SDS011;38624;53.242;6.974;2023-02-27T00:50:10;12.67;;;4.20;;
52730;SDS011;38624;53.242;6.974;2023-02-27T00:52:36;7.43;;;4.28;;
52730;SDS011;38624;53.242;6.974;2023-02-27T00:55:02;10.53;;;4.43;;
52730;SDS011;38624;53.242;6.974;2023-02-27T00:57:29;9.60;;;5.18;;
52730;SDS011;38624;53.242;6.974;2023-02-27T00:59:55;8.00;;;4.53;;
52730;SDS011;38624;53.242;6.974;2023-02-27T01:02:20;10.10;;;4.60;;
52730;SDS011;38624;53.242;6.974;2023-02-27T01:04:46;8.70;;;4.40;;
52730;SDS011;38624;53.242;6.974;2023-02-27T01:07:12;11.63;;;4.40;;
52730;SDS011;38624;53.242;6.974;2023-02-27T01:09:38;7.00;;;3.80;;
52730;SDS011;38624;53.242;6.974;2023-02-27T01:12:04;6.77;;;4.00;;
52730;SDS011;38624;53.242;6.974;2023-02-27T01:14:29;9.30;;;4.40;;
52730;SDS011;38624;53.242;6.974;2023-02-27T01:16:55;9.40;;;4.03;;
52730;SDS011;38624;53.242;6.974;2023-02-27T01:19:22;7.18;;;4.13;;
52730;SDS011;38624;53.242;6.974;2023-02-27T01:21:49;7.70;;;3.90;;
52730;SDS011;38624;53.242;6.974;2023-02-27T01:24:15;10.37;;;3.47;;
52730;SDS011;38624;53.242;6.974;2023-02-27T01:26:40;9.47;;;4.03;;
52730;SDS011;38624;53.242;6.974;2023-02-27T01:29:06;6.10;;;3.20;;
52730;SDS011;38624;53.242;6.974;2023-02-27T01:31:32;9.77;;;3.80;;
52730;SDS011;38624;53.242;6.974;2023-02-27T01:33:58;7.13;;;3.30;;
52730;SDS011;38624;53.242;6.974;2023-02-27T01:36:23;7.00;;;3.23;;
52730;SDS011;38624;53.242;6.974;2023-02-27T01:38:49;6.60;;;3.40;;
52730;SDS011;38624;53.242;6.974;2023-02-27T01:41:15;7.60;;;3.50;;
52730;SDS011;38624;53.242;6.974;2023-02-27T01:46:23;6.93;;;3.53;;
52730;SDS011;38624;53.242;6.974;2023-02-27T01:48:50;10.35;;;4.18;;
52730;SDS011;38624;53.242;6.974;2023-02-27T01:51:23;9.37;;;3.40;;
52730;SDS011;38624;53.242;6.974;2023-02-27T01:53:51;8.23;;;3.43;;
52730;SDS011;38624;53.242;6.974;2023-02-27T01:56:22;8.65;;;3.40;;
52730;SDS011;38624;53.242;6.974;2023-02-27T01:58:51;7.73;;;3.57;;
52730;SDS011;38624;53.242;6.974;2023-02-27T02:01:20;7.97;;;3.60;;
52730;SDS011;38624;53.242;6.974;2023-02-27T02:06:16;7.47;;;3.47;;
52730;SDS011;38624;53.242;6.974;2023-02-27T02:08:44;8.45;;;3.35;;
52730;SDS011;38624;53.242;6.974;2023-02-27T02:11:12;12.67;;;4.40;;
52730;SDS011;38624;53.242;6.974;2023-02-27T02:13:40;9.33;;;4.50;;
52730;SDS011;38624;53.242;6.974;2023-02-27T02:16:26;8.00;;;4.00;;
52730;SDS011;38624;53.242;6.974;2023-02-27T02:22:05;7.10;;;3.97;;
52730;SDS011;38624;53.242;6.974;2023-02-27T02:28:13;7.27;;;4.07;;
52730;SDS011;38624;53.242;6.974;2023-02-27T02:39:32;10.07;;;3.47;;
52730;SDS011;38624;53.242;6.974;2023-02-27T02:50:38;6.63;;;2.97;;
52730;SDS011;38624;53.242;6.974;2023-02-27T02:53:22;6.07;;;2.83;;
52730;SDS011;38624;53.242;6.974;2023-02-27T02:56:01;8.03;;;2.90;;
52730;SDS011;38624;53.242;6.974;2023-02-27T02:58:42;5.77;;;2.80;;
52730;SDS011;38624;53.242;6.974;2023-02-27T03:01:14;8.93;;;2.67;;
52730;SDS011;38624;53.242;6.974;2023-02-27T03:04:02;7.10;;;2.97;;
52730;SDS011;38624;53.242;6.974;2023-02-27T03:06:47;9.97;;;2.80;;
52730;SDS011;38624;53.242;6.974;2023-02-27T03:11:50;7.03;;;3.30;;
52730;SDS011;38624;53.242;6.974;2023-02-27T03:16:50;7.83;;;3.23;;
52730;SDS011;38624;53.242;6.974;2023-02-27T03:19:26;6.80;;;3.60;;
52730;SDS011;38624;53.242;6.974;2023-02-27T03:22:08;11.20;;;3.90;;
52730;SDS011;38624;53.242;6.974;2023-02-27T03:24:47;8.80;;;3.50;;
52730;SDS011;38624;53.242;6.974;2023-02-27T03:27:17;9.13;;;3.93;;
52730;SDS011;38624;53.242;6.974;2023-02-27T03:29:46;7.90;;;3.80;;
52730;SDS011;38624;53.242;6.974;2023-02-27T03:32:21;8.13;;;3.00;;
52730;SDS011;38624;53.242;6.974;2023-02-27T03:35:11;9.00;;;3.47;;
52730;SDS011;38624;53.242;6.974;2023-02-27T03:40:27;7.27;;;3.10;;
52730;SDS011;38624;53.242;6.974;2023-02-27T03:43:30;6.63;;;3.15;;
52730;SDS011;38624;53.242;6.974;2023-02-27T03:46:15;10.33;;;3.27;;
52730;SDS011;38624;53.242;6.974;2023-02-27T03:48:45;7.40;;;3.00;;
52730;SDS011;38624;53.242;6.974;2023-02-27T03:51:15;9.00;;;2.90;;
52730;SDS011;38624;53.242;6.974;2023-02-27T03:53:47;6.50;;;3.00;;
52730;SDS011;38624;53.242;6.974;2023-02-27T03:56:40;8.67;;;2.70;;
52730;SDS011;38624;53.242;6.974;2023-02-27T03:59:11;7.67;;;3.37;;
52730;SDS011;38624;53.242;6.974;2023-02-27T04:01:38;8.15;;;3.20;;
52730;SDS011;38624;53.242;6.974;2023-02-27T04:04:13;13.00;;;3.65;;
52730;SDS011;38624;53.242;6.974;2023-02-27T04:06:41;8.87;;;2.83;;
52730;SDS011;38624;53.242;6.974;2023-02-27T04:09:43;10.53;;;3.40;;
52730;SDS011;38624;53.242;6.974;2023-02-27T04:17:28;6.90;;;2.97;;
52730;SDS011;38624;53.242;6.974;2023-02-27T04:22:52;8.03;;;3.00;;
52730;SDS011;38624;53.242;6.974;2023-02-27T04:30:52;6.07;;;2.83;;
52730;SDS011;38624;53.242;6.974;2023-02-27T04:33:41;6.73;;;2.70;;
52730;SDS011;38624;53.242;6.974;2023-02-27T04:36:16;6.20;;;3.20;;
52730;SDS011;38624;53.242;6.974;2023-02-27T04:41:37;6.40;;;3.30;;
52730;SDS011;38624;53.242;6.974;2023-02-27T04:44:11;6.87;;;2.87;;
52730;SDS011;38624;53.242;6.974;2023-02-27T04:46:40;9.80;;;3.53;;
52730;SDS011;38624;53.242;6.974;2023-02-27T04:49:08;5.93;;;2.93;;
52730;SDS011;38624;53.242;6.974;2023-02-27T04:51:43;10.43;;;2.70;;
52730;SDS011;38624;53.242;6.974;2023-02-27T04:54:16;11.27;;;2.97;;
52730;SDS011;38624;53.242;6.974;2023-02-27T04:56:50;6.53;;;2.93;;
52730;SDS011;38624;53.242;6.974;2023-02-27T04:59:31;6.97;;;3.37;;
52730;SDS011;38624;53.242;6.974;2023-02-27T05:04:53;7.07;;;3.10;;
52730;SDS011;38624;53.242;6.974;2023-02-27T05:07:24;11.43;;;4.30;;
52730;SDS011;38624;53.242;6.974;2023-02-27T05:12:34;9.03;;;3.00;;
52730;SDS011;38624;53.242;6.974;2023-02-27T05:15:09;10.97;;;4.40;;
52730;SDS011;38624;53.242;6.974;2023-02-27T05:22:48;7.87;;;3.43;;
52730;SDS011;38624;53.242;6.974;2023-02-27T05:25:35;9.27;;;3.30;;
52730;SDS011;38624;53.242;6.974;2023-02-27T05:30:37;8.37;;;3.40;;
52730;SDS011;38624;53.242;6.974;2023-02-27T05:33:23;8.37;;;3.70;;
52730;SDS011;38624;53.242;6.974;2023-02-27T05:38:33;8.93;;;3.57;;
52730;SDS011;38624;53.242;6.974;2023-02-27T05:41:15;7.57;;;3.03;;
52730;SDS011;38624;53.242;6.974;2023-02-27T05:43:49;14.70;;;3.30;;
52730;SDS011;38624;53.242;6.974;2023-02-27T05:46:21;9.27;;;3.27;;
52730;SDS011;38624;53.242;6.974;2023-02-27T05:48:54;10.77;;;3.10;;
52730;SDS011;38624;53.242;6.974;2023-02-27T05:51:26;9.87;;;2.73;;
52730;SDS011;38624;53.242;6.974;2023-02-27T05:54:00;9.87;;;2.80;;
52730;SDS011;38624;53.242;6.974;2023-02-27T05:56:30;10.47;;;2.73;;
52730;SDS011;38624;53.242;6.974;2023-02-27T05:59:03;11.10;;;2.60;;
52730;SDS011;38624;53.242;6.974;2023-02-27T06:01:34;14.73;;;2.83;;
52730;SDS011;38624;53.242;6.974;2023-02-27T06:04:00;8.23;;;2.53;;
52730;SDS011;38624;53.242;6.974;2023-02-27T06:06:25;9.43;;;2.40;;
52730;SDS011;38624;53.242;6.974;2023-02-27T06:08:53;7.47;;;2.30;;
52730;SDS011;38624;53.242;6.974;2023-02-27T06:11:19;5.73;;;2.53;;
52730;SDS011;38624;53.242;6.974;2023-02-27T06:13:45;4.37;;;2.40;;
52730;SDS011;38624;53.242;6.974;2023-02-27T06:16:11;12.37;;;2.80;;
52730;SDS011;38624;53.242;6.974;2023-02-27T06:18:38;12.27;;;3.20;;
52730;SDS011;38624;53.242;6.974;2023-02-27T06:21:04;10.37;;;2.90;;
52730;SDS011;38624;53.242;6.974;2023-02-27T06:23:30;5.17;;;2.67;;
52730;SDS011;38624;53.242;6.974;2023-02-27T06:25:56;11.17;;;2.60;;
52730;SDS011;38624;53.242;6.974;2023-02-27T06:28:22;10.60;;;2.73;;
52730;SDS011;38624;53.242;6.974;2023-02-27T06:30:51;9.27;;;2.50;;
52730;SDS011;38624;53.242;6.974;2023-02-27T06:33:21;8.90;;;2.90;;
52730;SDS011;38624;53.242;6.974;2023-02-27T06:35:47;6.47;;;3.00;;
52730;SDS011;38624;53.242;6.974;2023-02-27T06:38:14;8.53;;;3.00;;
52730;SDS011;38624;53.242;6.974;2023-02-27T06:40:40;10.60;;;2.70;;
52730;SDS011;38624;53.242;6.974;2023-02-27T06:43:06;11.18;;;3.05;;
52730;SDS011;38624;53.242;6.974;2023-02-27T06:45:32;14.33;;;6.70;;
52730;SDS011;38624;53.242;6.974;2023-02-27T06:47:57;11.67;;;5.47;;
52730;SDS011;38624;53.242;6.974;2023-02-27T06:50:23;11.93;;;5.40;;
52730;SDS011;38624;53.242;6.974;2023-02-27T06:52:48;10.83;;;4.60;;
52730;SDS011;38624;53.242;6.974;2023-02-27T06:55:14;8.50;;;3.10;;
52730;SDS011;38624;53.242;6.974;2023-02-27T06:57:44;10.37;;;3.63;;
52730;SDS011;38624;53.242;6.974;2023-02-27T07:00:14;7.73;;;3.17;;
52730;SDS011;38624;53.242;6.974;2023-02-27T07:02:41;12.53;;;3.33;;
52730;SDS011;38624;53.242;6.974;2023-02-27T07:05:08;8.82;;;2.92;;
52730;SDS011;38624;53.242;6.974;2023-02-27T07:07:36;8.90;;;2.93;;
52730;SDS011;38624;53.242;6.974;2023-02-27T07:10:01;9.53;;;3.60;;
52730;SDS011;38624;53.242;6.974;2023-02-27T07:12:28;10.18;;;3.15;;
52730;SDS011;38624;53.242;6.974;2023-02-27T07:14:54;8.53;;;2.90;;
52730;SDS011;38624;53.242;6.974;2023-02-27T07:17:19;6.00;;;2.47;;
52730;SDS011;38624;53.242;6.974;2023-02-27T07:19:46;11.60;;;3.20;;
52730;SDS011;38624;53.242;6.974;2023-02-27T07:22:12;13.27;;;3.77;;
52730;SDS011;38624;53.242;6.974;2023-02-27T07:24:37;8.43;;;3.10;;
52730;SDS011;38624;53.242;6.974;2023-02-27T07:27:03;7.73;;;2.83;;
52730;SDS011;38624;53.242;6.974;2023-02-27T07:29:29;12.53;;;2.83;;
52730;SDS011;38624;53.242;6.974;2023-02-27T07:31:54;10.90;;;2.50;;
52730;SDS011;38624;53.242;6.974;2023-02-27T07:34:20;8.23;;;2.63;;
52730;SDS011;38624;53.242;6.974;2023-02-27T07:36:46;7.73;;;2.63;;
52730;SDS011;38624;53.242;6.974;2023-02-27T07:39:12;9.20;;;3.17;;
52730;SDS011;38624;53.242;6.974;2023-02-27T07:41:37;7.97;;;2.73;;
52730;SDS011;38624;53.242;6.974;2023-02-27T07:44:03;8.17;;;2.93;;
52730;SDS011;38624;53.242;6.974;2023-02-27T07:46:32;10.47;;;3.00;;
52730;SDS011;38624;53.242;6.974;2023-02-27T07:48:58;13.50;;;3.10;;
52730;SDS011;38624;53.242;6.974;2023-02-27T07:51:24;7.77;;;2.90;;
52730;SDS011;38624;53.242;6.974;2023-02-27T07:53:50;7.13;;;2.90;;
52730;SDS011;38624;53.242;6.974;2023-02-27T07:56:16;7.60;;;2.10;;
52730;SDS011;38624;53.242;6.974;2023-02-27T07:58:41;7.20;;;2.67;;
52730;SDS011;38624;53.242;6.974;2023-02-27T08:01:07;7.43;;;2.37;;
52730;SDS011;38624;53.242;6.974;2023-02-27T08:03:33;9.80;;;3.30;;
52730;SDS011;38624;53.242;6.974;2023-02-27T08:05:59;6.60;;;2.40;;
52730;SDS011;38624;53.242;6.974;2023-02-27T08:08:24;16.13;;;3.20;;
52730;SDS011;38624;53.242;6.974;2023-02-27T08:10:50;5.33;;;2.57;;
52730;SDS011;38624;53.242;6.974;2023-02-27T08:13:16;6.33;;;3.00;;
52730;SDS011;38624;53.242;6.974;2023-02-27T08:15:41;8.37;;;2.67;;
52730;SDS011;38624;53.242;6.974;2023-02-27T08:18:07;10.13;;;4.67;;
52730;SDS011;38624;53.242;6.974;2023-02-27T08:20:33;10.20;;;3.67;;
52730;SDS011;38624;53.242;6.974;2023-02-27T08:22:59;10.70;;;4.00;;
52730;SDS011;38624;53.242;6.974;2023-02-27T08:25:24;9.80;;;3.55;;
52730;SDS011;38624;53.242;6.974;2023-02-27T08:27:50;8.33;;;3.40;;
52730;SDS011;38624;53.242;6.974;2023-02-27T08:30:16;11.17;;;3.20;;
52730;SDS011;38624;53.242;6.974;2023-02-27T08:32:42;9.30;;;3.67;;
52730;SDS011;38624;53.242;6.974;2023-02-27T08:35:08;9.80;;;3.47;;
52730;SDS011;38624;53.242;6.974;2023-02-27T08:37:34;8.27;;;2.87;;
52730;SDS011;38624;53.242;6.974;2023-02-27T08:40:00;11.50;;;3.15;;
52730;SDS011;38624;53.242;6.974;2023-02-27T08:42:26;6.63;;;2.97;;
52730;SDS011;38624;53.242;6.974;2023-02-27T08:44:51;9.83;;;4.17;;
52730;SDS011;38624;53.242;6.974;2023-02-27T08:47:17;8.87;;;4.37;;
52730;SDS011;38624;53.242;6.974;2023-02-27T08:49:43;11.97;;;3.37;;
52730;SDS011;38624;53.242;6.974;2023-02-27T08:52:09;5.50;;;1.57;;
52730;SDS011;38624;53.242;6.974;2023-02-27T08:54:35;4.77;;;1.73;;
52730;SDS011;38624;53.242;6.974;2023-02-27T08:57:01;3.90;;;1.30;;
52730;SDS011;38624;53.242;6.974;2023-02-27T08:59:28;7.05;;;1.55;;
52730;SDS011;38624;53.242;6.974;2023-02-27T09:01:54;3.60;;;1.23;;
52730;SDS011;38624;53.242;6.974;2023-02-27T09:04:20;5.03;;;1.40;;
52730;SDS011;38624;53.242;6.974;2023-02-27T09:06:45;6.35;;;1.75;;
52730;SDS011;38624;53.242;6.974;2023-02-27T09:09:12;7.30;;;1.70;;
52730;SDS011;38624;53.242;6.974;2023-02-27T09:11:38;7.72;;;1.60;;
52730;SDS011;38624;53.242;6.974;2023-02-27T09:14:04;5.33;;;1.23;;
52730;SDS011;38624;53.242;6.974;2023-02-27T09:16:30;6.27;;;1.30;;
52730;SDS011;38624;53.242;6.974;2023-02-27T09:18:55;5.60;;;1.30;;
52730;SDS011;38624;53.242;6.974;2023-02-27T09:21:21;3.33;;;1.33;;
52730;SDS011;38624;53.242;6.974;2023-02-27T09:23:49;5.25;;;1.35;;
52730;SDS011;38624;53.242;6.974;2023-02-27T09:26:15;6.22;;;1.35;;
52730;SDS011;38624;53.242;6.974;2023-02-27T09:28:41;5.32;;;1.58;;
52730;SDS011;38624;53.242;6.974;2023-02-27T09:31:08;8.32;;;1.45;;
52730;SDS011;38624;53.242;6.974;2023-02-27T09:33:35;6.72;;;1.50;;
52730;SDS011;38624;53.242;6.974;2023-02-27T09:36:02;4.30;;;1.20;;
52730;SDS011;38624;53.242;6.974;2023-02-27T09:38:30;6.88;;;1.90;;
52730;SDS011;38624;53.242;6.974;2023-02-27T09:40:57;5.45;;;1.30;;
52730;SDS011;38624;53.242;6.974;2023-02-27T09:43:29;4.85;;;1.25;;
52730;SDS011;38624;53.242;6.974;2023-02-27T09:46:08;10.27;;;1.60;;
52730;SDS011;38624;53.242;6.974;2023-02-27T09:48:59;7.00;;;1.10;;
52730;SDS011;38624;53.242;6.974;2023-02-27T09:51:26;5.45;;;1.20;;
52730;SDS011;38624;53.242;6.974;2023-02-27T09:53:56;3.90;;;1.42;;
52730;SDS011;38624;53.242;6.974;2023-02-27T10:05:20;2.42;;;1.17;;
52730;SDS011;38624;53.242;6.974;2023-02-27T10:08:08;4.28;;;1.13;;
52730;SDS011;38624;53.242;6.974;2023-02-27T10:10:58;4.80;;;1.15;;
52730;SDS011;38624;53.242;6.974;2023-02-27T10:13:35;3.90;;;1.20;;
52730;SDS011;38624;53.242;6.974;2023-02-27T10:16:24;5.00;;;1.10;;
52730;SDS011;38624;53.242;6.974;2023-02-27T10:19:00;2.40;;;1.10;;
52730;SDS011;38624;53.242;6.974;2023-02-27T10:26:48;1.85;;;0.98;;
52730;SDS011;38624;53.242;6.974;2023-02-27T10:29:27;3.30;;;1.17;;
52730;SDS011;38624;53.242;6.974;2023-02-27T10:34:29;4.43;;;1.10;;
52730;SDS011;38624;53.242;6.974;2023-02-27T10:36:57;3.72;;;1.30;;
52730;SDS011;38624;53.242;6.974;2023-02-27T10:39:26;5.47;;;1.20;;
52730;SDS011;38624;53.242;6.974;2023-02-27T10:41:53;3.70;;;1.10;;
52730;SDS011;38624;53.242;6.974;2023-02-27T10:44:21;4.05;;;0.80;;
52730;SDS011;38624;53.242;6.974;2023-02-27T10:49:18;3.42;;;0.95;;
52730;SDS011;38624;53.242;6.974;2023-02-27T10:51:46;5.00;;;0.93;;
52730;SDS011;38624;53.242;6.974;2023-02-27T10:54:28;5.07;;;1.30;;
52730;SDS011;38624;53.242;6.974;2023-02-27T10:56:54;4.55;;;1.10;;
52730;SDS011;38624;53.242;6.974;2023-02-27T10:59:40;3.33;;;1.20;;
52730;SDS011;38624;53.242;6.974;2023-02-27T11:04:48;4.00;;;1.05;;
52730;SDS011;38624;53.242;6.974;2023-02-27T11:07:24;2.20;;;0.90;;
52730;SDS011;38624;53.242;6.974;2023-02-27T11:09:57;2.55;;;0.85;;
52730;SDS011;38624;53.242;6.974;2023-02-27T11:12:26;1.60;;;0.80;;
52730;SDS011;38624;53.242;6.974;2023-02-27T11:14:53;3.28;;;1.00;;
52730;SDS011;38624;53.242;6.974;2023-02-27T11:17:28;3.70;;;0.80;;
52730;SDS011;38624;53.242;6.974;2023-02-27T11:19:56;2.47;;;0.80;;
52730;SDS011;38624;53.242;6.974;2023-02-27T11:22:24;3.22;;;0.90;;
52730;SDS011;38624;53.242;6.974;2023-02-27T11:25:16;2.10;;;0.98;;
52730;SDS011;38624;53.242;6.974;2023-02-27T11:27:42;2.90;;;1.00;;
52730;SDS011;38624;53.242;6.974;2023-02-27T11:30:21;3.20;;;0.90;;
52730;SDS011;38624;53.242;6.974;2023-02-27T11:32:47;2.25;;;1.13;;
52730;SDS011;38624;53.242;6.974;2023-02-27T11:35:19;2.55;;;0.80;;
52730;SDS011;38624;53.242;6.974;2023-02-27T11:37:55;5.40;;;0.80;;
52730;SDS011;38624;53.242;6.974;2023-02-27T11:40:26;2.85;;;0.80;;
52730;SDS011;38624;53.242;6.974;2023-02-27T11:43:05;3.05;;;1.02;;
52730;SDS011;38624;53.242;6.974;2023-02-27T11:45:42;3.78;;;0.70;;
52730;SDS011;38624;53.242;6.974;2023-02-27T11:50:56;2.00;;;0.80;;
52730;SDS011;38624;53.242;6.974;2023-02-27T11:56:37;0.77;;;0.63;;
52730;SDS011;38624;53.242;6.974;2023-02-27T12:01:54;2.15;;;0.80;;
52730;SDS011;38624;53.242;6.974;2023-02-27T12:04:23;1.30;;;0.70;;
52730;SDS011;38624;53.242;6.974;2023-02-27T12:07:11;3.55;;;0.95;;
52730;SDS011;38624;53.242;6.974;2023-02-27T12:12:20;3.15;;;0.82;;
52730;SDS011;38624;53.242;6.974;2023-02-27T12:15:01;1.80;;;0.80;;
52730;SDS011;38624;53.242;6.974;2023-02-27T12:17:39;2.58;;;1.42;;
52730;SDS011;38624;53.242;6.974;2023-02-27T12:20:22;1.70;;;0.90;;
52730;SDS011;38624;53.242;6.974;2023-02-27T12:22:56;2.03;;;0.85;;
52730;SDS011;38624;53.242;6.974;2023-02-27T12:28:17;3.53;;;1.00;;
52730;SDS011;38624;53.242;6.974;2023-02-27T12:33:35;0.70;;;0.60;;
52730;SDS011;38624;53.242;6.974;2023-02-27T12:36:11;1.35;;;0.63;;
52730;SDS011;38624;53.242;6.974;2023-02-27T12:38:38;2.15;;;0.70;;
52730;SDS011;38624;53.242;6.974;2023-02-27T12:46:38;1.65;;;0.60;;
52730;SDS011;38624;53.242;6.974;2023-02-27T12:49:33;1.65;;;0.60;;
52730;SDS011;38624;53.242;6.974;2023-02-27T12:55:05;1.55;;;0.65;;
52730;SDS011;38624;53.242;6.974;2023-02-27T13:00:20;0.73;;;0.60;;
52730;SDS011;38624;53.242;6.974;2023-02-27T13:03:01;1.85;;;0.88;;
52730;SDS011;38624;53.242;6.974;2023-02-27T13:05:46;1.58;;;0.80;;
52730;SDS011;38624;53.242;6.974;2023-02-27T13:13:54;2.03;;;0.50;;
52730;SDS011;38624;53.242;6.974;2023-02-27T13:16:30;1.90;;;0.70;;
52730;SDS011;38624;53.242;6.974;2023-02-27T13:21:51;2.28;;;1.08;;
52730;SDS011;38624;53.242;6.974;2023-02-27T13:24:23;2.53;;;1.38;;
52730;SDS011;38624;53.242;6.974;2023-02-27T13:29:33;2.25;;;0.80;;
52730;SDS011;38624;53.242;6.974;2023-02-27T13:35:18;4.13;;;1.70;;
52730;SDS011;38624;53.242;6.974;2023-02-27T13:40:31;2.58;;;1.00;;
52730;SDS011;38624;53.242;6.974;2023-02-27T14:02:01;3.05;;;1.48;;
52730;SDS011;38624;53.242;6.974;2023-02-27T14:04:31;3.30;;;1.55;;
52730;SDS011;38624;53.242;6.974;2023-02-27T14:07:06;3.83;;;1.70;;
52730;SDS011;38624;53.242;6.974;2023-02-27T14:09:36;2.95;;;0.82;;
52730;SDS011;38624;53.242;6.974;2023-02-27T14:12:06;2.42;;;0.73;;
52730;SDS011;38624;53.242;6.974;2023-02-27T14:14:51;2.55;;;1.00;;
52730;SDS011;38624;53.242;6.974;2023-02-27T14:19:59;2.20;;;0.80;;
52730;SDS011;38624;53.242;6.974;2023-02-27T14:22:35;4.03;;;1.20;;
52730;SDS011;38624;53.242;6.974;2023-02-27T14:25:10;3.95;;;0.90;;
52730;SDS011;38624;53.242;6.974;2023-02-27T14:30:17;0.93;;;0.60;;
52730;SDS011;38624;53.242;6.974;2023-02-27T14:33:13;2.70;;;0.80;;
52730;SDS011;38624;53.242;6.974;2023-02-27T14:36:00;3.10;;;0.70;;
52730;SDS011;38624;53.242;6.974;2023-02-27T14:38:28;2.92;;;0.60;;
52730;SDS011;38624;53.242;6.974;2023-02-27T14:43:47;4.43;;;0.93;;
52730;SDS011;38624;53.242;6.974;2023-02-27T14:46:23;2.10;;;0.70;;
52730;SDS011;38624;53.242;6.974;2023-02-27T14:48:54;2.30;;;0.70;;
52730;SDS011;38624;53.242;6.974;2023-02-27T14:51:31;1.75;;;0.73;;
52730;SDS011;38624;53.242;6.974;2023-02-27T14:56:40;2.45;;;0.80;;
52730;SDS011;38624;53.242;6.974;2023-02-27T14:59:27;2.35;;;0.73;;
52730;SDS011;38624;53.242;6.974;2023-02-27T15:02:01;1.50;;;0.63;;
52730;SDS011;38624;53.242;6.974;2023-02-27T15:04:29;2.80;;;0.70;;
52730;SDS011;38624;53.242;6.974;2023-02-27T15:06:56;2.65;;;0.70;;
52730;SDS011;38624;53.242;6.974;2023-02-27T15:11:50;3.30;;;0.85;;
52730;SDS011;38624;53.242;6.974;2023-02-27T15:14:20;3.83;;;0.90;;
52730;SDS011;38624;53.242;6.974;2023-02-27T15:16:54;1.52;;;0.70;;
52730;SDS011;38624;53.242;6.974;2023-02-27T15:19:21;1.40;;;0.60;;
52730;SDS011;38624;53.242;6.974;2023-02-27T15:21:50;1.15;;;0.70;;
52730;SDS011;38624;53.242;6.974;2023-02-27T15:26:56;1.63;;;0.70;;
52730;SDS011;38624;53.242;6.974;2023-02-27T15:29:35;3.05;;;0.70;;
52730;SDS011;38624;53.242;6.974;2023-02-27T15:32:13;4.25;;;0.80;;
52730;SDS011;38624;53.242;6.974;2023-02-27T15:34:49;1.27;;;0.65;;
52730;SDS011;38624;53.242;6.974;2023-02-27T15:37:17;1.17;;;0.60;;
52730;SDS011;38624;53.242;6.974;2023-02-27T15:39:46;1.73;;;0.77;;
52730;SDS011;38624;53.242;6.974;2023-02-27T15:42:11;3.13;;;0.77;;
52730;SDS011;38624;53.242;6.974;2023-02-27T15:44:42;2.83;;;0.90;;
52730;SDS011;38624;53.242;6.974;2023-02-27T15:47:23;2.95;;;0.70;;
52730;SDS011;38624;53.242;6.974;2023-02-27T15:49:52;4.45;;;0.85;;
52730;SDS011;38624;53.242;6.974;2023-02-27T15:52:23;2.25;;;0.70;;
52730;SDS011;38624;53.242;6.974;2023-02-27T15:55:11;2.72;;;0.73;;
52730;SDS011;38624;53.242;6.974;2023-02-27T15:57:39;1.75;;;0.88;;
52730;SDS011;38624;53.242;6.974;2023-02-27T16:00:06;2.90;;;0.80;;
52730;SDS011;38624;53.242;6.974;2023-02-27T16:02:37;2.33;;;0.80;;
52730;SDS011;38624;53.242;6.974;2023-02-27T16:05:14;3.72;;;0.85;;
52730;SDS011;38624;53.242;6.974;2023-02-27T16:07:42;5.47;;;1.00;;
52730;SDS011;38624;53.242;6.974;2023-02-27T16:10:13;4.45;;;0.85;;
52730;SDS011;38624;53.242;6.974;2023-02-27T16:12:48;2.97;;;0.80;;
52730;SDS011;38624;53.242;6.974;2023-02-27T16:17:53;5.57;;;1.98;;
52730;SDS011;38624;53.242;6.974;2023-02-27T16:20:43;8.73;;;2.70;;
52730;SDS011;38624;53.242;6.974;2023-02-27T16:23:24;8.25;;;2.80;;
52730;SDS011;38624;53.242;6.974;2023-02-27T16:29:05;6.93;;;1.63;;
52730;SDS011;38624;53.242;6.974;2023-02-27T16:31:46;9.55;;;3.40;;
52730;SDS011;38624;53.242;6.974;2023-02-27T16:37:00;4.93;;;1.95;;
52730;SDS011;38624;53.242;6.974;2023-02-27T16:39:27;7.35;;;2.25;;
52730;SDS011;38624;53.242;6.974;2023-02-27T16:41:54;5.38;;;2.10;;
52730;SDS011;38624;53.242;6.974;2023-02-27T16:46:48;5.85;;;1.45;;
52730;SDS011;38624;53.242;6.974;2023-02-27T16:49:19;3.92;;;0.98;;
52730;SDS011;38624;53.242;6.974;2023-02-27T16:51:47;4.38;;;1.00;;
52730;SDS011;38624;53.242;6.974;2023-02-27T16:54:13;2.77;;;1.07;;
52730;SDS011;38624;53.242;6.974;2023-02-27T16:56:40;3.83;;;1.30;;
52730;SDS011;38624;53.242;6.974;2023-02-27T16:59:30;4.60;;;1.38;;
52730;SDS011;38624;53.242;6.974;2023-02-27T17:02:02;2.45;;;1.00;;
52730;SDS011;38624;53.242;6.974;2023-02-27T17:04:29;4.68;;;1.30;;
52730;SDS011;38624;53.242;6.974;2023-02-27T17:06:56;6.00;;;1.20;;
52730;SDS011;38624;53.242;6.974;2023-02-27T17:09:23;3.47;;;1.00;;
52730;SDS011;38624;53.242;6.974;2023-02-27T17:11:51;5.15;;;1.05;;
52730;SDS011;38624;53.242;6.974;2023-02-27T17:14:17;2.90;;;1.00;;
52730;SDS011;38624;53.242;6.974;2023-02-27T17:16:43;2.80;;;0.90;;
52730;SDS011;38624;53.242;6.974;2023-02-27T17:19:08;2.38;;;1.20;;
52730;SDS011;38624;53.242;6.974;2023-02-27T17:21:34;10.15;;;1.45;;
52730;SDS011;38624;53.242;6.974;2023-02-27T17:24:00;3.42;;;1.30;;
52730;SDS011;38624;53.242;6.974;2023-02-27T17:26:26;3.72;;;1.10;;
52730;SDS011;38624;53.242;6.974;2023-02-27T17:28:52;2.20;;;1.10;;
52730;SDS011;38624;53.242;6.974;2023-02-27T17:31:20;3.15;;;1.10;;
52730;SDS011;38624;53.242;6.974;2023-02-27T17:33:50;2.55;;;1.00;;
52730;SDS011;38624;53.242;6.974;2023-02-27T17:36:16;2.92;;;1.20;;
52730;SDS011;38624;53.242;6.974;2023-02-27T17:38:42;4.50;;;1.27;;
52730;SDS011;38624;53.242;6.974;2023-02-27T17:41:09;3.47;;;1.25;;
52730;SDS011;38624;53.242;6.974;2023-02-27T17:43:36;4.43;;;1.40;;
52730;SDS011;38624;53.242;6.974;2023-02-27T17:46:06;5.47;;;1.40;;
52730;SDS011;38624;53.242;6.974;2023-02-27T17:48:33;6.28;;;1.67;;
52730;SDS011;38624;53.242;6.974;2023-02-27T17:51:07;8.32;;;3.15;;
52730;SDS011;38624;53.242;6.974;2023-02-27T17:53:37;11.05;;;4.72;;
52730;SDS011;38624;53.242;6.974;2023-02-27T17:56:03;11.00;;;4.63;;
52730;SDS011;38624;53.242;6.974;2023-02-27T17:58:30;8.77;;;3.35;;
52730;SDS011;38624;53.242;6.974;2023-02-27T18:01:04;8.15;;;2.63;;
52730;SDS011;38624;53.242;6.974;2023-02-27T18:03:49;8.25;;;2.33;;
52730;SDS011;38624;53.242;6.974;2023-02-27T18:06:16;7.88;;;2.90;;
52730;SDS011;38624;53.242;6.974;2023-02-27T18:08:42;6.25;;;2.80;;